Terminal Aerodrome Forecast
Issued by NWS Des Moines, IA

Home | Current Version | Previous Version | Text Only | Print | Product List | Glossary On
Versions: 1 2 3 4 5 6 7 8 9 10 11 12 13 14
000
FTUS43 KDMX 231126
TAFALO
TAF
KALO 231126Z 2312/2412 14011KT P6SM SCT030 OVC040
     FM231500 14015G21KT P6SM OVC028
     FM231800 15014G22KT P6SM OVC015
     FM240000 14012KT P6SM OVC030
     FM240400 15011KT P6SM BKN035
     FM240900 17007KT P6SM BKN040=

USA.gov is the U.S. government's official web portal to all federal, state and local government web resources and services.